Time,TemperatureF,DewpointF,PressureIn,WindDirection,WindDirectionDegrees,WindSpeedMPH,WindSpeedGustMPH,Humidity,HourlyPrecipIn,Conditions,Clouds,dailyrainin,SoftwareType,DateUTC
2013-08-16 00:01:00,50.0,47.0,-100.00,South,186,0.0,4.0,89,-99.99,,,-99.99,,2013-08-16 08:01:00,
2013-08-16 00:11:00,50.0,47.0,-100.00,South,186,0.0,4.0,89,-99.99,,,-99.99,,2013-08-16 08:11:00,
2013-08-16 00:21:00,50.0,47.0,-100.00,SW,225,0.0,2.0,88,-99.99,,,-99.99,,2013-08-16 08:21:00,
2013-08-16 00:41:00,50.0,47.0,-100.00,SSW,192,0.0,1.0,88,-99.99,,,-99.99,,2013-08-16 08:41:00,
2013-08-16 00:51:00,50.0,47.0,-100.00,ENE,69,3.0,10.0,89,-99.99,,,-99.99,,2013-08-16 08:51:00,
2013-08-16 00:52:00,50.0,47.0,-100.00,SSW,192,0.0,1.0,88,-99.99,,,-99.99,,2013-08-16 08:52:00,
2013-08-16 01:01:00,50.0,47.0,-100.00,SSW,192,0.0,1.0,88,-99.99,,,-99.99,,2013-08-16 09:01:00,
2013-08-16 01:21:00,50.0,47.0,-100.00,ENE,69,3.0,10.0,89,-99.99,,,-99.99,,2013-08-16 09:21:00,
2013-08-16 01:33:00,50.0,47.0,-100.00,ENE,69,3.0,10.0,89,-99.99,,,-99.99,,2013-08-16 09:33:00,
2013-08-16 01:42:00,50.0,47.0,-100.00,ENE,69,3.0,10.0,89,-99.99,,,-99.99,,2013-08-16 09:42:00,
2013-08-16 01:52:00,50.0,47.0,-100.00,SSE,162,0.0,1.0,89,-99.99,,,-99.99,,2013-08-16 09:52:00,
2013-08-16 02:13:00,51.0,48.0,-100.00,SW,225,0.0,1.0,89,-99.99,,,-99.99,,2013-08-16 10:13:00,
2013-08-16 02:23:00,50.0,47.0,-100.00,SSE,162,0.0,1.0,89,-99.99,,,-99.99,,2013-08-16 10:23:00,
2013-08-16 02:33:00,50.0,47.0,-100.00,SSE,162,0.0,1.0,89,-99.99,,,-99.99,,2013-08-16 10:33:00,
2013-08-16 02:42:00,50.0,47.0,-100.00,SSE,162,0.0,1.0,89,-99.99,,,-99.99,,2013-08-16 10:42:00,
2013-08-16 03:42:00,51.0,47.0,-100.00,South,175,0.0,2.0,87,-99.99,,,-99.99,,2013-08-16 11:42:00,
2013-08-16 03:52:00,51.0,46.0,-100.00,SSW,210,0.0,1.0,83,-99.99,,,-99.99,,2013-08-16 11:52:00,
2013-08-16 04:12:00,50.0,45.0,-100.00,SSW,198,0.0,2.0,83,-99.99,,,-99.99,,2013-08-16 12:12:00,
2013-08-16 04:21:00,50.0,45.0,-100.00,SSW,198,0.0,2.0,83,-99.99,,,-99.99,,2013-08-16 12:21:00,
2013-08-16 04:42:00,50.0,46.0,-100.00,NW,320,0.0,0.0,87,-99.99,,,-99.99,,2013-08-16 12:42:00,
2013-08-16 04:52:00,49.0,45.0,-100.00,ENE,71,0.0,2.0,86,-99.99,,,-99.99,,2013-08-16 12:52:00,
2013-08-16 05:11:00,50.0,47.0,-100.00,South,169,1.0,3.0,88,-99.99,,,-99.99,,2013-08-16 13:11:00,
2013-08-16 05:21:00,50.0,47.0,-100.00,South,169,1.0,3.0,88,-99.99,,,-99.99,,2013-08-16 13:21:00,
2013-08-16 05:42:00,49.0,46.0,-100.00,South,177,4.0,8.0,88,-99.99,,,-99.99,,2013-08-16 13:42:00,
2013-08-16 05:53:00,49.0,46.0,-100.00,South,177,4.0,8.0,88,-99.99,,,-99.99,,2013-08-16 13:53:00,
2013-08-16 06:01:00,49.0,46.0,-100.00,South,177,4.0,8.0,88,-99.99,,,-99.99,,2013-08-16 14:01:00,
2013-08-16 06:42:00,49.0,45.0,-100.00,SSE,160,3.0,5.0,86,-99.99,,,-99.99,,2013-08-16 14:42:00,
2013-08-16 06:52:00,50.0,46.0,-100.00,SSW,206,2.0,5.0,85,-99.99,,,-99.99,,2013-08-16 14:52:00,
2013-08-16 07:12:00,49.0,45.0,-100.00,SSW,198,0.0,3.0,86,-99.99,,,-99.99,,2013-08-16 15:12:00,
2013-08-16 07:22:00,49.0,44.0,-100.00,SSE,161,0.0,2.0,84,-99.99,,,-99.99,,2013-08-16 15:22:00,
2013-08-16 07:43:00,50.0,44.0,-100.00,South,178,0.0,2.0,81,-99.99,,,-99.99,,2013-08-16 15:43:00,
2013-08-16 07:56:00,50.0,44.0,-100.00,South,178,0.0,2.0,81,-99.99,,,-99.99,,2013-08-16 15:56:00,
2013-08-16 08:04:00,50.0,44.0,-100.00,South,178,0.0,2.0,81,-99.99,,,-99.99,,2013-08-16 16:04:00,
2013-08-16 08:23:00,50.0,45.0,-100.00,SW,215,1.0,3.0,82,-99.99,,,-99.99,,2013-08-16 16:23:00,
2013-08-16 08:43:00,50.0,44.0,-100.00,SSW,198,0.0,1.0,81,-99.99,,,-99.99,,2013-08-16 16:43:00,
2013-08-16 08:57:00,50.0,44.0,-100.00,SW,216,0.0,2.0,81,-99.99,,,-99.99,,2013-08-16 16:57:00,
2013-08-16 09:12:00,50.0,44.0,-100.00,SSE,148,0.0,2.0,81,-99.99,,,-99.99,,2013-08-16 17:12:00,
2013-08-16 09:28:00,50.0,44.0,-100.00,SSE,148,0.0,2.0,81,-99.99,,,-99.99,,2013-08-16 17:28:00,
2013-08-16 09:47:00,51.0,46.0,-100.00,West,277,0.0,1.0,83,-99.99,,,-99.99,,2013-08-16 17:47:00,
2013-08-16 10:00:00,51.0,46.0,-100.00,West,277,0.0,1.0,83,-99.99,,,-99.99,,2013-08-16 18:00:00,
2013-08-16 10:06:00,51.0,46.0,-100.00,West,277,0.0,1.0,83,-99.99,,,-99.99,,2013-08-16 18:06:00,
2013-08-16 10:50:00,-999.0,-99.9,-100.00,SSW,205,3.0,5.0,88,-99.99,,,-99.99,,2013-08-16 18:50:00,
2013-08-16 11:02:00,51.0,47.0,-100.00,SW,231,0.0,4.0,86,-99.99,,,-99.99,,2013-08-16 19:02:00,
2013-08-16 11:14:00,51.0,47.0,-100.00,SW,231,0.0,4.0,86,-99.99,,,-99.99,,2013-08-16 19:14:00,
2013-08-16 11:21:00,51.0,45.0,-100.00,SW,223,0.0,2.0,79,-99.99,,,-99.99,,2013-08-16 19:21:00,
2013-08-16 11:25:00,51.0,45.0,-100.00,West,260,0.0,1.0,80,-99.99,,,-99.99,,2013-08-16 19:25:00,
2013-08-16 11:46:00,51.0,47.0,-100.00,West,279,0.0,2.0,86,-99.99,,,-99.99,,2013-08-16 19:46:00,
2013-08-16 11:55:00,51.0,45.0,-100.00,SW,223,0.0,2.0,79,-99.99,,,-99.99,,2013-08-16 19:55:00,
2013-08-16 12:02:00,51.0,45.0,-100.00,SW,223,0.0,2.0,79,-99.99,,,-99.99,,2013-08-16 20:02:00,
2013-08-16 12:11:00,51.0,45.0,-100.00,SW,223,0.0,2.0,79,-99.99,,,-99.99,,2013-08-16 20:11:00,
2013-08-16 13:40:00,-999.0,-99.9,-100.00,SW,228,0.0,3.0,-999,-99.99,,,-99.99,,2013-08-16 21:40:00,
2013-08-16 13:54:00,51.0,49.0,-100.00,WSW,242,2.0,4.0,93,-99.99,,,-99.99,,2013-08-16 21:54:00,
2013-08-16 14:13:00,51.0,48.0,-100.00,WSW,245,0.0,3.0,91,-99.99,,,-99.99,,2013-08-16 22:13:00,
2013-08-16 14:24:00,51.0,48.0,-100.00,NE,36,2.0,4.0,91,-99.99,,,-99.99,,2013-08-16 22:24:00,
2013-08-16 14:43:00,51.0,49.0,-100.00,NNE,18,2.0,8.0,92,-99.99,,,-99.99,,2013-08-16 22:43:00,
2013-08-16 14:52:00,51.0,49.0,-100.00,NE,40,6.0,10.0,93,-99.99,,,-99.99,,2013-08-16 22:52:00,
2013-08-16 15:12:00,51.0,49.0,-100.00,NE,39,4.0,9.0,93,-99.99,,,-99.99,,2013-08-16 23:12:00,
2013-08-16 15:23:00,51.0,49.0,-100.00,NE,38,3.0,8.0,92,-99.99,,,-99.99,,2013-08-16 23:23:00,
2013-08-16 15:42:00,51.0,49.0,-100.00,NNE,32,4.0,6.0,92,-99.99,,,-99.99,,2013-08-16 23:42:00,
2013-08-16 15:52:00,50.0,48.0,-100.00,NE,49,3.0,6.0,92,-99.99,,,-99.99,,2013-08-16 23:52:00,
2013-08-16 16:01:00,50.0,48.0,-100.00,NE,49,3.0,6.0,92,-99.99,,,-99.99,,2013-08-17 00:01:00,
2013-08-16 16:11:00,50.0,48.0,-100.00,NE,49,3.0,6.0,92,-99.99,,,-99.99,,2013-08-17 00:11:00,
2013-08-16 16:21:00,50.0,48.0,-100.00,NE,49,3.0,6.0,92,-99.99,,,-99.99,,2013-08-17 00:21:00,
2013-08-16 16:42:00,51.0,47.0,-100.00,West,279,0.0,4.0,87,-99.99,,,-99.99,,2013-08-17 00:42:00,
2013-08-16 16:52:00,51.0,49.0,-100.00,South,179,0.0,8.0,94,-99.99,,,-99.99,,2013-08-17 00:52:00,
2013-08-16 17:11:00,50.0,49.0,-100.00,WSW,240,0.0,5.0,95,-99.99,,,-99.99,,2013-08-17 01:11:00,
2013-08-16 17:42:00,50.0,49.0,-100.00,NNE,21,2.0,4.0,96,-99.99,,,-99.99,,2013-08-17 01:42:00,
2013-08-16 17:52:00,51.0,49.0,-100.00,NNE,29,3.0,6.0,94,-99.99,,,-99.99,,2013-08-17 01:52:00,
2013-08-16 18:11:00,51.0,49.0,-100.00,NE,37,3.0,9.0,92,-99.99,,,-99.99,,2013-08-17 02:11:00,
2013-08-16 18:21:00,51.0,49.0,-100.00,NE,37,3.0,9.0,92,-99.99,,,-99.99,,2013-08-17 02:21:00,
2013-08-16 18:31:00,51.0,49.0,-100.00,NE,37,3.0,9.0,92,-99.99,,,-99.99,,2013-08-17 02:31:00,
2013-08-16 19:11:00,50.0,49.0,-100.00,SSW,206,0.0,0.0,96,-99.99,,,-99.99,,2013-08-17 03:11:00,
2013-08-16 19:21:00,50.0,49.0,-100.00,SW,222,1.0,3.0,95,-99.99,,,-99.99,,2013-08-17 03:21:00,
2013-08-16 19:34:00,50.0,49.0,-100.00,SW,222,1.0,3.0,95,-99.99,,,-99.99,,2013-08-17 03:34:00,
2013-08-16 19:43:00,50.0,49.0,-100.00,SW,222,1.0,3.0,95,-99.99,,,-99.99,,2013-08-17 03:43:00,
2013-08-16 19:53:00,50.0,49.0,-100.00,ESE,123,0.0,1.0,97,-99.99,,,-99.99,,2013-08-17 03:53:00,
2013-08-16 20:12:00,50.0,48.0,-100.00,SSE,147,1.0,3.0,93,-99.99,,,-99.99,,2013-08-17 04:12:00,
2013-08-16 20:23:00,50.0,48.0,-100.00,SSE,147,1.0,3.0,93,-99.99,,,-99.99,,2013-08-17 04:23:00,
2013-08-16 20:32:00,50.0,48.0,-100.00,SSE,147,1.0,3.0,93,-99.99,,,-99.99,,2013-08-17 04:32:00,
2013-08-16 20:53:00,50.0,48.0,-100.00,SSW,198,2.0,5.0,94,-99.99,,,-99.99,,2013-08-17 04:53:00,
2013-08-16 21:12:00,49.0,48.0,-100.00,South,182,1.0,3.0,95,-99.99,,,-99.99,,2013-08-17 05:12:00,
2013-08-16 21:22:00,51.0,45.0,-100.00,SSW,199,0.0,4.0,79,-99.99,,,-99.99,,2013-08-17 05:22:00,
2013-08-16 21:42:00,50.0,46.0,-100.00,ENE,73,0.0,2.0,87,-99.99,,,-99.99,,2013-08-17 05:42:00,
2013-08-16 21:51:00,50.0,47.0,-100.00,SSW,205,3.0,4.0,91,-99.99,,,-99.99,,2013-08-17 05:51:00,
2013-08-16 22:12:00,49.0,47.0,-100.00,South,189,2.0,4.0,93,-99.99,,,-99.99,,2013-08-17 06:12:00,
2013-08-16 22:21:00,49.0,47.0,-100.00,South,189,2.0,4.0,93,-99.99,,,-99.99,,2013-08-17 06:21:00,
2013-08-16 22:42:00,49.0,46.0,-100.00,SSE,152,0.0,2.0,91,-99.99,,,-99.99,,2013-08-17 06:42:00,
2013-08-16 22:52:00,49.0,46.0,-100.00,SSE,152,0.0,2.0,91,-99.99,,,-99.99,,2013-08-17 06:52:00,
2013-08-16 23:11:00,49.0,47.0,-100.00,NE,56,1.0,2.0,92,-99.99,,,-99.99,,2013-08-17 07:11:00,
2013-08-16 23:21:00,49.0,46.0,-100.00,East,87,0.0,2.0,91,-99.99,,,-99.99,,2013-08-17 07:21:00,
2013-08-16 23:41:00,49.0,46.0,-100.00,ESE,118,0.0,1.0,91,-99.99,,,-99.99,,2013-08-17 07:41:00,
2013-08-16 23:52:00,49.0,46.0,-100.00,ESE,118,0.0,1.0,91,-99.99,,,-99.99,,2013-08-17 07:52:00,